createdAt,value
2023-04-18T00:01:47.377Z,8.55
2023-04-18T00:04:18.546Z,8.00
2023-04-18T00:06:49.744Z,6.97
2023-04-18T00:09:17.863Z,5.90
2023-04-18T00:11:46.012Z,7.72
2023-04-18T00:14:14.494Z,8.00
2023-04-18T00:19:11.391Z,9.32
2023-04-18T00:21:45.059Z,10.63
2023-04-18T00:24:13.739Z,11.70
2023-04-18T00:26:41.986Z,8.98
2023-04-18T00:29:10.103Z,8.50
2023-04-18T00:31:38.301Z,10.90
2023-04-18T00:34:06.516Z,8.48
2023-04-18T00:36:34.625Z,8.63
2023-04-18T00:39:04.249Z,9.60
2023-04-18T00:41:32.343Z,9.95
2023-04-18T00:44:00.515Z,8.98
2023-04-18T00:46:28.742Z,11.23
2023-04-18T00:48:57.133Z,6.35
2023-04-18T00:51:25.743Z,11.23
2023-04-18T00:53:55.406Z,7.95
2023-04-18T00:56:25.951Z,11.93
2023-04-18T00:58:54.634Z,11.35
2023-04-18T01:01:23.417Z,14.75
2023-04-18T01:03:51.737Z,10.80
2023-04-18T01:06:20.516Z,11.52
2023-04-18T01:08:48.821Z,11.90
2023-04-18T01:11:19.288Z,10.30
2023-04-18T01:14:01.754Z,11.90
2023-04-18T01:16:32.668Z,14.18
2023-04-18T01:19:01.522Z,9.38
2023-04-18T01:21:31.165Z,13.27
2023-04-18T01:24:01.885Z,12.25
2023-04-18T01:26:31.494Z,11.20
2023-04-18T01:28:59.573Z,12.65
2023-04-18T01:31:27.788Z,8.07
2023-04-18T01:33:56.003Z,12.95
2023-04-18T01:36:24.068Z,13.77
2023-04-18T01:38:52.164Z,12.88
2023-04-18T01:41:20.353Z,12.07
2023-04-18T01:43:51.135Z,14.88
2023-04-18T01:46:19.656Z,12.85
2023-04-18T01:48:47.784Z,12.30
2023-04-18T01:51:16.127Z,15.45
2023-04-18T01:53:44.193Z,12.60
2023-04-18T01:56:12.434Z,12.52
2023-04-18T01:58:41.651Z,11.77
2023-04-18T02:01:11.303Z,12.98
2023-04-18T02:03:40.037Z,17.63
2023-04-18T02:06:08.775Z,12.07
2023-04-18T02:08:36.900Z,14.65
2023-04-18T02:11:06.475Z,10.43
2023-04-18T02:13:34.549Z,8.73
2023-04-18T02:16:14.756Z,12.43
2023-04-18T02:18:45.482Z,13.32
2023-04-18T02:21:15.054Z,9.68
2023-04-18T02:23:43.124Z,9.70
2023-04-18T02:26:11.174Z,11.63
2023-04-18T02:28:39.915Z,11.10
2023-04-18T02:31:14.514Z,12.80
2023-04-18T02:33:45.087Z,10.18
2023-04-18T02:36:13.966Z,11.50
2023-04-18T02:38:44.976Z,11.48
2023-04-18T02:41:17.418Z,10.80
2023-04-18T02:43:45.624Z,11.25
2023-04-18T02:46:16.211Z,10.60
2023-04-18T02:48:48.281Z,12.20
2023-04-18T02:51:20.036Z,14.32
2023-04-18T02:53:49.001Z,12.88
2023-04-18T02:56:18.931Z,11.80
2023-04-18T02:59:07.933Z,14.85
2023-04-18T03:01:54.863Z,15.98
2023-04-18T03:04:25.538Z,14.25
2023-04-18T03:07:03.134Z,13.98
2023-04-18T03:09:37.025Z,13.63
2023-04-18T03:12:13.778Z,13.85
2023-04-18T03:14:44.516Z,14.95
2023-04-18T03:17:15.092Z,17.25
2023-04-18T03:22:21.091Z,11.30
2023-04-18T03:24:55.426Z,17.77
2023-04-18T03:27:32.200Z,19.27
2023-04-18T03:30:00.632Z,17.27
2023-04-18T03:32:29.029Z,13.45
2023-04-18T03:34:58.545Z,13.00
2023-04-18T03:37:26.905Z,16.98
2023-04-18T03:39:57.311Z,15.15
2023-04-18T03:42:28.593Z,12.63
2023-04-18T03:44:56.849Z,11.65
2023-04-18T03:47:25.073Z,12.43
2023-04-18T03:49:58.576Z,12.57
2023-04-18T03:52:29.754Z,12.88
2023-04-18T03:54:58.266Z,15.48
2023-04-18T03:57:31.597Z,13.60
2023-04-18T04:00:00.967Z,13.30
2023-04-18T04:02:32.329Z,14.32
2023-04-18T04:05:02.748Z,14.30
2023-04-18T04:07:31.447Z,10.60
2023-04-18T04:09:59.830Z,9.60
2023-04-18T04:12:28.494Z,14.15
2023-04-18T04:14:56.738Z,11.05
2023-04-18T04:17:25.232Z,12.63
2023-04-18T04:19:54.298Z,12.45
2023-04-18T04:22:24.228Z,11.43
2023-04-18T04:24:53.072Z,9.93
2023-04-18T04:27:28.176Z,16.52
2023-04-18T04:29:57.660Z,12.57
2023-04-18T04:32:27.487Z,10.38
2023-04-18T04:34:56.328Z,14.73
2023-04-18T04:37:26.424Z,12.48
2023-04-18T04:40:10.974Z,11.13
2023-04-18T04:42:58.599Z,15.18
2023-04-18T04:45:33.467Z,13.95
2023-04-18T04:48:01.754Z,13.77
2023-04-18T04:50:30.043Z,14.15
2023-04-18T04:52:59.463Z,20.35
2023-04-18T04:55:27.582Z,15.23
2023-04-18T04:57:55.920Z,16.30
2023-04-18T05:00:37.422Z,15.85
2023-04-18T05:03:05.902Z,12.95
2023-04-18T05:05:34.171Z,16.05
2023-04-18T05:08:03.972Z,13.57
2023-04-18T05:10:32.624Z,12.77
2023-04-18T05:13:00.909Z,18.63
2023-04-18T05:15:29.187Z,16.80
2023-04-18T05:17:57.336Z,19.90
2023-04-18T05:20:25.788Z,16.35
2023-04-18T05:22:54.137Z,15.95
2023-04-18T05:25:23.502Z,9.50
2023-04-18T05:27:52.076Z,18.75
2023-04-18T05:30:20.561Z,13.82
2023-04-18T05:32:48.710Z,14.38
2023-04-18T05:35:16.841Z,16.33
2023-04-18T05:37:44.943Z,19.73
2023-04-18T05:40:14.434Z,14.48
2023-04-18T05:42:44.006Z,14.20
2023-04-18T05:45:13.413Z,11.45
2023-04-18T05:47:41.634Z,18.98
2023-04-18T05:50:10.507Z,14.63
2023-04-18T05:52:39.255Z,17.25
2023-04-18T05:55:08.078Z,11.75
2023-04-18T05:57:36.323Z,13.52
2023-04-18T06:00:07.533Z,19.52
2023-04-18T06:02:40.917Z,14.20
2023-04-18T06:05:10.269Z,15.55
2023-04-18T06:07:38.569Z,12.90
2023-04-18T06:10:11.197Z,14.48
2023-04-18T06:12:39.309Z,12.85
2023-04-18T06:15:09.823Z,15.65
2023-04-18T06:17:38.096Z,16.95
2023-04-18T06:20:06.929Z,21.08
2023-04-18T06:22:35.134Z,17.15
2023-04-18T06:25:03.548Z,14.48
2023-04-18T06:27:32.209Z,13.05
2023-04-18T06:30:00.715Z,12.15
2023-04-18T06:32:30.187Z,14.95
2023-04-18T06:34:58.326Z,16.00
2023-04-18T06:37:26.544Z,21.30
2023-04-18T06:39:54.758Z,17.02
2023-04-18T06:42:23.019Z,17.92
2023-04-18T06:44:51.281Z,20.60
2023-04-18T06:47:19.502Z,16.35
2023-04-18T06:49:49.070Z,12.00
2023-04-18T06:52:17.405Z,15.80
2023-04-18T06:54:45.518Z,12.07
2023-04-18T06:57:14.160Z,14.23
2023-04-18T06:59:42.501Z,20.52
2023-04-18T07:02:10.603Z,13.88
2023-04-18T07:04:38.824Z,13.23
2023-04-18T07:07:08.404Z,16.48
2023-04-18T07:09:36.501Z,17.50
2023-04-18T07:12:04.792Z,11.30
2023-04-18T07:14:34.228Z,9.55
2023-04-18T07:17:02.962Z,17.13
2023-04-18T07:19:31.174Z,10.52
2023-04-18T07:21:59.348Z,13.40
2023-04-18T07:24:28.804Z,16.50
2023-04-18T07:26:56.950Z,18.80
2023-04-18T07:29:25.104Z,17.33
2023-04-18T07:31:53.357Z,21.17
2023-04-18T07:34:22.975Z,15.05
2023-04-18T07:36:51.351Z,13.63
2023-04-18T07:39:19.535Z,16.73
2023-04-18T07:41:49.067Z,16.55
2023-04-18T07:44:17.102Z,15.05
2023-04-18T07:46:45.460Z,9.80
2023-04-18T07:49:13.778Z,11.93
2023-04-18T07:51:43.250Z,13.57
2023-04-18T07:54:12.272Z,15.15
2023-04-18T07:56:41.036Z,17.65
2023-04-18T07:59:10.630Z,16.95
2023-04-18T08:01:38.860Z,16.92
2023-04-18T08:04:07.364Z,18.17
2023-04-18T08:06:35.832Z,19.33
2023-04-18T08:09:05.814Z,19.30
2023-04-18T08:11:34.564Z,17.35
2023-04-18T08:14:02.945Z,16.10
2023-04-18T08:16:32.542Z,21.05
2023-04-18T08:19:00.816Z,20.27
2023-04-18T08:21:29.094Z,15.13
2023-04-18T08:23:57.165Z,19.63
2023-04-18T08:26:25.386Z,12.48
2023-04-18T08:28:53.476Z,13.52
2023-04-18T08:31:22.076Z,13.13
2023-04-18T08:33:51.617Z,13.57
2023-04-18T08:36:19.766Z,12.98
2023-04-18T08:38:47.798Z,15.57
2023-04-18T08:41:20.811Z,20.02
2023-04-18T08:43:49.173Z,16.17
2023-04-18T08:46:17.472Z,12.60
2023-04-18T08:48:46.864Z,16.63
2023-04-18T08:51:16.233Z,15.77
2023-04-18T08:53:45.365Z,17.92
2023-04-18T08:56:14.756Z,16.70
2023-04-18T08:58:45.214Z,14.75
2023-04-18T09:01:13.834Z,15.98
2023-04-18T09:03:44.135Z,17.80
2023-04-18T09:06:16.263Z,14.82
2023-04-18T09:08:57.531Z,11.40
2023-04-18T09:11:29.101Z,11.27
2023-04-18T09:13:59.373Z,12.25
2023-04-18T09:16:29.313Z,13.85
2023-04-18T09:19:18.766Z,14.93
2023-04-18T09:21:48.877Z,18.92
2023-04-18T09:24:24.328Z,13.93
2023-04-18T09:26:55.931Z,15.23
2023-04-18T09:29:42.396Z,13.18
2023-04-18T09:32:11.287Z,21.88
2023-04-18T09:34:43.554Z,10.65
2023-04-18T09:37:12.765Z,17.23
2023-04-18T09:39:45.323Z,12.35
2023-04-18T09:42:13.959Z,12.48
2023-04-18T09:45:00.856Z,13.00
2023-04-18T09:47:29.520Z,16.48
2023-04-18T09:49:57.737Z,13.25
2023-04-18T09:52:26.967Z,10.60
2023-04-18T09:54:59.524Z,11.85
2023-04-18T09:57:30.334Z,10.77
2023-04-18T10:00:08.721Z,13.85
2023-04-18T10:02:52.185Z,13.80
2023-04-18T10:05:21.933Z,14.38
2023-04-18T10:07:51.698Z,13.75
2023-04-18T10:10:21.823Z,15.68
2023-04-18T10:12:51.533Z,15.48
2023-04-18T10:15:22.279Z,18.65
2023-04-18T10:18:04.206Z,14.02
2023-04-18T10:20:35.590Z,12.85
2023-04-18T10:23:34.659Z,17.98
2023-04-18T10:26:04.928Z,14.45
2023-04-18T10:28:51.124Z,12.35
2023-04-18T10:31:19.616Z,13.05
2023-04-18T10:34:00.734Z,15.27
2023-04-18T10:36:32.645Z,20.88
2023-04-18T10:39:03.261Z,11.45
2023-04-18T10:41:33.823Z,13.27
2023-04-18T10:44:22.552Z,12.77
2023-04-18T10:47:28.278Z,9.88
2023-04-18T10:49:59.000Z,11.73
2023-04-18T10:52:29.666Z,10.25
2023-04-18T10:55:08.774Z,14.07
2023-04-18T10:57:42.228Z,9.77
2023-04-18T11:00:13.828Z,9.95
2023-04-18T11:02:51.892Z,12.30
2023-04-18T11:05:23.041Z,10.13
2023-04-18T11:07:52.038Z,8.90
2023-04-18T11:10:21.509Z,10.27
2023-04-18T11:12:51.445Z,6.57
2023-04-18T11:15:22.243Z,5.68
2023-04-18T11:18:10.353Z,6.55
2023-04-18T11:20:40.036Z,7.55
2023-04-18T11:23:17.270Z,5.22
2023-04-18T11:25:47.135Z,10.35
2023-04-18T11:28:20.960Z,10.75
2023-04-18T11:30:49.538Z,9.55
2023-04-18T11:33:17.731Z,7.97
2023-04-18T11:35:47.550Z,6.78
2023-04-18T11:38:16.684Z,9.43
2023-04-18T11:40:48.615Z,7.13
2023-04-18T11:43:24.057Z,7.65
2023-04-18T11:45:53.805Z,8.85
2023-04-18T11:48:22.544Z,8.60
2023-04-18T11:50:50.863Z,9.15
2023-04-18T11:53:33.625Z,7.40
2023-04-18T11:56:03.606Z,6.25
2023-04-18T11:58:34.098Z,4.95
2023-04-18T12:01:16.995Z,6.72
2023-04-18T12:03:45.841Z,7.70
2023-04-18T12:06:14.064Z,7.68
2023-04-18T12:08:44.403Z,7.95
2023-04-18T12:11:21.569Z,7.47
2023-04-18T12:13:51.059Z,6.43
2023-04-18T12:16:19.152Z,6.07
2023-04-18T12:18:49.205Z,6.32
2023-04-18T12:21:22.514Z,6.32
2023-04-18T12:23:53.892Z,9.00
2023-04-18T12:26:31.939Z,8.23
2023-04-18T12:29:02.330Z,7.57
2023-04-18T12:31:30.409Z,6.75
2023-04-18T12:34:00.140Z,13.30
2023-04-18T12:36:28.821Z,6.53
2023-04-18T12:38:57.001Z,9.73
2023-04-18T12:41:25.091Z,8.07
2023-04-18T12:43:53.169Z,7.68
2023-04-18T12:46:22.640Z,12.73
2023-04-18T12:48:50.797Z,7.13
2023-04-18T12:51:18.922Z,11.52
2023-04-18T12:53:47.043Z,6.65
2023-04-18T12:56:15.117Z,8.40
2023-04-18T12:58:43.389Z,7.47
2023-04-18T13:01:11.646Z,7.68
2023-04-18T13:03:48.585Z,4.07
2023-04-18T13:06:22.594Z,7.50
2023-04-18T13:08:52.828Z,9.90
2023-04-18T13:11:22.764Z,8.88
2023-04-18T13:13:51.060Z,5.93
2023-04-18T13:16:19.204Z,6.75
2023-04-18T13:18:48.664Z,11.02
2023-04-18T13:21:16.756Z,6.78
2023-04-18T13:23:44.761Z,5.82
2023-04-18T13:26:12.892Z,4.97
2023-04-18T13:28:41.035Z,9.55
2023-04-18T13:31:09.245Z,3.17
2023-04-18T13:33:37.315Z,6.57
2023-04-18T13:36:07.433Z,5.05
2023-04-18T13:38:36.104Z,7.40
2023-04-18T13:41:12.129Z,4.75
2023-04-18T13:43:41.296Z,7.30
2023-04-18T13:46:09.471Z,7.97
2023-04-18T13:48:37.831Z,5.63
2023-04-18T13:51:07.984Z,5.05
2023-04-18T13:53:36.787Z,7.00
2023-04-18T13:56:05.010Z,5.68
2023-04-18T13:58:33.323Z,9.38
2023-04-18T14:01:01.857Z,3.90
2023-04-18T14:03:30.796Z,6.53
2023-04-18T14:05:59.395Z,5.82
2023-04-18T14:08:28.904Z,6.28
2023-04-18T14:10:56.983Z,8.90
2023-04-18T14:13:25.133Z,4.80
2023-04-18T14:15:53.947Z,5.18
2023-04-18T14:18:23.663Z,4.20
2023-04-18T14:20:51.947Z,7.25
2023-04-18T14:23:20.234Z,4.70
2023-04-18T14:25:49.690Z,6.60
2023-04-18T14:28:20.880Z,3.88
2023-04-18T14:30:49.011Z,4.57
2023-04-18T14:33:17.076Z,6.80
2023-04-18T14:35:45.253Z,4.47
2023-04-18T14:38:13.367Z,8.88
2023-04-18T14:40:41.522Z,6.20
2023-04-18T14:43:10.884Z,4.85
2023-04-18T14:45:39.133Z,4.13
2023-04-18T14:48:08.832Z,4.78
2023-04-18T14:50:39.111Z,8.20
2023-04-18T14:53:07.547Z,5.05
2023-04-18T14:55:35.833Z,4.57
2023-04-18T14:58:03.957Z,5.55
2023-04-18T15:00:33.526Z,3.65
2023-04-18T15:03:01.845Z,4.10
2023-04-18T15:05:30.101Z,4.60
2023-04-18T15:07:58.214Z,6.55
2023-04-18T15:10:26.409Z,4.85
2023-04-18T15:12:54.539Z,4.50
2023-04-18T15:15:22.828Z,5.38
2023-04-18T15:17:52.353Z,5.57
2023-04-18T15:20:22.510Z,3.65
2023-04-18T15:22:52.138Z,4.45
2023-04-18T15:25:20.276Z,4.32
2023-04-18T15:27:48.416Z,5.90
2023-04-18T15:30:16.516Z,6.15
2023-04-18T15:32:45.633Z,5.13
2023-04-18T15:35:15.260Z,4.22
2023-04-18T15:37:43.531Z,5.40
2023-04-18T15:40:16.181Z,7.82
2023-04-18T15:42:44.667Z,4.03
2023-04-18T15:45:13.331Z,3.65
2023-04-18T15:47:41.865Z,4.75
2023-04-18T15:50:11.135Z,5.03
2023-04-18T15:52:41.763Z,4.35
2023-04-18T15:55:12.304Z,5.47
2023-04-18T15:57:40.721Z,6.95
2023-04-18T16:00:15.865Z,8.07
2023-04-18T16:02:44.825Z,5.93
2023-04-18T16:05:13.719Z,6.30
2023-04-18T16:07:43.968Z,5.57
2023-04-18T16:10:12.966Z,5.35
2023-04-18T16:12:41.829Z,4.60
2023-04-18T16:15:11.128Z,5.30
2023-04-18T16:17:39.508Z,5.35
2023-04-18T16:20:09.262Z,4.53
2023-04-18T16:22:37.614Z,5.65
2023-04-18T16:25:07.808Z,4.93
2023-04-18T16:27:36.020Z,5.40
2023-04-18T16:30:04.369Z,5.65
2023-04-18T16:32:32.528Z,8.52
2023-04-18T16:35:00.571Z,6.03
2023-04-18T16:37:28.755Z,5.45
2023-04-18T16:39:56.904Z,4.53
2023-04-18T16:42:26.398Z,6.95
2023-04-18T16:44:54.774Z,6.25
2023-04-18T16:47:23.039Z,4.28
2023-04-18T16:49:51.779Z,6.57
2023-04-18T16:52:19.985Z,6.95
2023-04-18T16:54:49.719Z,7.90
2023-04-18T16:57:18.820Z,7.63
2023-04-18T16:59:48.421Z,6.00
2023-04-18T17:02:16.711Z,4.47
2023-04-18T17:04:45.038Z,7.25
2023-04-18T17:07:13.296Z,6.90
2023-04-18T17:09:41.744Z,5.32
2023-04-18T17:12:09.934Z,5.32
2023-04-18T17:14:38.150Z,5.22
2023-04-18T17:17:07.624Z,5.53
2023-04-18T17:19:36.002Z,5.28
2023-04-18T17:22:04.091Z,5.07
2023-04-18T17:24:32.334Z,9.35
2023-04-18T17:27:01.311Z,4.80
2023-04-18T17:29:29.392Z,6.93
2023-04-18T17:31:57.566Z,6.22
2023-04-18T17:34:27.011Z,6.70
2023-04-18T17:36:55.166Z,5.43
2023-04-18T17:39:23.869Z,3.78
2023-04-18T17:41:51.999Z,4.32
2023-04-18T17:44:20.070Z,7.40
2023-04-18T17:46:49.990Z,9.48
2023-04-18T17:49:18.630Z,5.88
2023-04-18T17:51:48.329Z,4.97
2023-04-18T17:54:16.498Z,8.20
2023-04-18T17:56:45.505Z,7.10
2023-04-18T17:59:13.801Z,7.03
2023-04-18T18:01:42.189Z,6.20
2023-04-18T18:04:10.617Z,6.63
2023-04-18T18:06:39.039Z,7.10
2023-04-18T18:09:08.768Z,5.25
2023-04-18T18:11:37.263Z,6.65
2023-04-18T18:14:05.867Z,8.98
2023-04-18T18:16:34.024Z,6.43
2023-04-18T18:19:02.223Z,7.95
2023-04-18T18:21:30.303Z,7.20
2023-04-18T18:23:58.333Z,6.43
2023-04-18T18:26:27.863Z,7.65
2023-04-18T18:28:55.979Z,5.82
2023-04-18T18:31:25.056Z,4.63
2023-04-18T18:33:53.375Z,4.95
2023-04-18T18:36:21.830Z,6.50
2023-04-18T18:38:49.965Z,5.65
2023-04-18T18:41:18.087Z,5.93
2023-04-18T18:43:47.457Z,10.43
2023-04-18T18:46:16.132Z,5.78
2023-04-18T18:48:44.404Z,5.65
2023-04-18T18:51:12.700Z,8.40
2023-04-18T18:53:40.820Z,4.95
2023-04-18T18:56:09.766Z,10.43
2023-04-18T18:58:39.153Z,6.07
2023-04-18T19:01:08.668Z,10.15
2023-04-18T19:03:36.906Z,6.35
2023-04-18T19:06:07.104Z,6.35
2023-04-18T19:08:36.043Z,13.57
2023-04-18T19:11:04.364Z,9.02
2023-04-18T19:13:32.453Z,8.10
2023-04-18T19:16:00.660Z,8.32
2023-04-18T19:18:30.171Z,6.45
2023-04-18T19:20:58.372Z,9.77
2023-04-18T19:23:27.819Z,7.22
2023-04-18T19:25:56.002Z,8.75
2023-04-18T19:28:24.176Z,5.70
2023-04-18T19:30:53.140Z,4.72
2023-04-18T19:33:24.257Z,8.02
2023-04-18T19:35:53.761Z,7.93
2023-04-18T19:38:21.872Z,5.03
2023-04-18T19:40:50.105Z,6.20
2023-04-18T19:43:18.104Z,6.88
2023-04-18T19:45:46.272Z,5.70
2023-04-18T19:48:14.410Z,4.00
2023-04-18T19:50:43.261Z,8.55
2023-04-18T19:53:12.632Z,7.30
2023-04-18T19:55:41.755Z,5.72
2023-04-18T19:58:09.836Z,9.93
2023-04-18T20:00:37.964Z,6.07
2023-04-18T20:03:06.369Z,8.70
2023-04-18T20:05:34.628Z,5.65
2023-04-18T20:08:02.768Z,4.78
2023-04-18T20:10:33.172Z,8.25
2023-04-18T20:13:02.219Z,6.30
2023-04-18T20:15:31.144Z,6.57
2023-04-18T20:17:59.422Z,5.18
2023-04-18T20:20:27.590Z,4.95
2023-04-18T20:22:55.805Z,5.88
2023-04-18T20:25:24.730Z,5.97
2023-04-18T20:27:54.723Z,6.40
2023-04-18T20:30:23.110Z,7.30
2023-04-18T20:32:52.217Z,7.03
2023-04-18T20:35:21.091Z,8.35
2023-04-18T20:37:49.826Z,9.18
2023-04-18T20:40:18.731Z,7.03
2023-04-18T20:42:46.832Z,6.47
2023-04-18T20:45:16.413Z,7.13
2023-04-18T20:47:44.577Z,6.38
2023-04-18T20:50:14.067Z,7.03
2023-04-18T20:52:42.919Z,6.07
2023-04-18T20:55:11.802Z,6.55
2023-04-18T20:57:39.990Z,4.68
2023-04-18T21:00:10.511Z,7.82
2023-04-18T21:02:40.213Z,9.27
2023-04-18T21:05:09.029Z,7.90
2023-04-18T21:07:37.727Z,6.40
2023-04-18T21:10:06.354Z,6.13
2023-04-18T21:12:34.459Z,7.53
2023-04-18T21:15:02.600Z,6.63
2023-04-18T21:17:30.856Z,8.40
2023-04-18T21:20:00.277Z,8.88
2023-04-18T21:22:28.374Z,4.72
2023-04-18T21:24:56.461Z,10.85
2023-04-18T21:27:24.579Z,7.13
2023-04-18T21:29:52.782Z,8.40
2023-04-18T21:32:21.121Z,7.05
2023-04-18T21:34:49.137Z,6.60
2023-04-18T21:37:18.764Z,9.52
2023-04-18T21:39:46.834Z,8.18
2023-04-18T21:42:14.950Z,7.97
2023-04-18T21:44:42.918Z,6.50
2023-04-18T21:47:11.018Z,8.02
2023-04-18T21:49:39.067Z,9.10
2023-04-18T21:52:07.731Z,5.20
2023-04-18T21:54:37.117Z,6.47
2023-04-18T21:57:06.264Z,6.70
2023-04-18T21:59:34.341Z,7.13
2023-04-18T22:02:02.550Z,5.75
2023-04-18T22:04:30.747Z,6.90
2023-04-18T22:06:58.918Z,6.85
2023-04-18T22:09:27.021Z,4.93
2023-04-18T22:11:57.672Z,6.15
2023-04-18T22:14:26.064Z,11.13
2023-04-18T22:16:54.703Z,5.95
2023-04-18T22:19:22.829Z,6.72
2023-04-18T22:21:50.950Z,7.82
2023-04-18T22:24:19.745Z,8.68
2023-04-18T22:26:47.873Z,3.85
2023-04-18T22:29:17.209Z,5.65
2023-04-18T22:31:45.391Z,6.38
2023-04-18T22:34:13.796Z,5.18
2023-04-18T22:36:43.876Z,4.68
2023-04-18T22:39:12.160Z,5.97
2023-04-18T22:41:40.401Z,6.38
2023-04-18T22:44:08.419Z,8.27
2023-04-18T22:46:38.897Z,8.40
2023-04-18T22:49:07.457Z,7.82
2023-04-18T22:51:35.559Z,10.32
2023-04-18T22:54:03.680Z,7.13
2023-04-18T22:56:31.815Z,7.93
2023-04-18T22:58:59.984Z,7.80
2023-04-18T23:01:28.099Z,8.13
2023-04-18T23:03:57.813Z,6.00
2023-04-18T23:06:27.979Z,5.20
2023-04-18T23:08:56.528Z,8.43
2023-04-18T23:11:24.741Z,9.00
2023-04-18T23:13:52.825Z,6.55
2023-04-18T23:16:21.057Z,5.82
2023-04-18T23:18:49.254Z,9.52
2023-04-18T23:21:19.217Z,5.40
2023-04-18T23:23:47.442Z,5.93
2023-04-18T23:26:16.379Z,3.97
2023-04-18T23:28:44.481Z,7.75
2023-04-18T23:31:12.660Z,7.03
2023-04-18T23:33:40.906Z,10.73
2023-04-18T23:36:09.517Z,8.30
2023-04-18T23:38:38.912Z,7.03
2023-04-18T23:41:07.137Z,8.15
2023-04-18T23:43:35.521Z,7.30
2023-04-18T23:46:03.564Z,11.07
2023-04-18T23:48:31.664Z,6.18
2023-04-18T23:50:59.803Z,5.75
2023-04-18T23:53:27.865Z,6.82
2023-04-18T23:55:57.365Z,9.13
2023-04-18T23:58:26.494Z,10.13
